Terminal Aerodrome Forecast
Issued by NWS El Paso, TX

Home | Current Version | Previous Version | Text Only | Print | Product List | Glossary On
Versions: 1 2 3 4 5 6 7 8 9 10 11 12
391
FTUS44 KEPZ 101727
TAFELP
TAF
KELP 101727Z 1018/1118 25006KT P6SM FEW250
     FM110400 34006KT P6SM SCT250=

USA.gov is the U.S. government's official web portal to all federal, state and local government web resources and services.